Time;durP1;ratioP1;P1;durP2;ratioP2;P2;SDS_P1;SDS_P2;PMS_P1;PMS_P2;Temp;Humidity;BMP_temperature;BMP_pressure;BME280_temperature;BME280_humidity;BME280_pressure;Samples;Min_cycle;Max_cycle;Signal;HPM_P1;HPM_P2
2023/03/05 00:01:06;;;;;;;3.40;0.45;;;3.80;99.90;;;;;;4999526;28;20498;-35
2023/03/05 00:03:32;;;;;;;7.28;0.50;;;3.80;99.90;;;;;;5004215;28;20042;-35
2023/03/05 00:05:58;;;;;;;5.15;1.15;;;3.80;99.90;;;;;;5003272;28;20053;-35
2023/03/05 00:08:24;;;;;;;6.38;1.15;;;3.80;99.90;;;;;;4997865;28;20058;-37
2023/03/05 00:11:00;;;;;;;6.47;0.95;;;3.80;99.90;;;;;;5002771;28;20077;-36
2023/03/05 00:13:26;;;;;;;3.92;1.00;;;3.80;99.90;;;;;;5004875;28;20389;-36
2023/03/05 00:15:52;;;;;;;5.43;1.15;;;3.80;99.90;;;;;;5015544;28;20156;-36
2023/03/05 00:18:18;;;;;;;3.60;0.60;;;3.80;99.90;;;;;;5002889;28;20049;-35
2023/03/05 00:20:44;;;;;;;4.32;0.50;;;3.80;99.90;;;;;;5008591;28;20566;-36
2023/03/05 00:23:10;;;;;;;4.50;0.57;;;3.80;99.90;;;;;;5002874;28;20139;-35
2023/03/05 00:25:36;;;;;;;2.47;0.50;;;3.80;99.90;;;;;;5001199;28;20057;-35
2023/03/05 00:28:03;;;;;;;2.47;0.50;;;3.80;99.90;;;;;;5002087;28;20065;-35
2023/03/05 00:30:29;;;;;;;2.58;0.38;;;3.80;99.90;;;;;;4996667;28;20381;-35
2023/03/05 00:32:55;;;;;;;5.78;0.98;;;3.80;99.90;;;;;;4999879;28;20054;-37
2023/03/05 00:35:20;;;;;;;8.80;0.93;;;3.80;99.90;;;;;;5000171;28;20056;-36
2023/03/05 00:37:46;;;;;;;5.70;0.95;;;3.70;99.90;;;;;;5002294;28;20341;-37
2023/03/05 00:40:12;;;;;;;5.85;1.17;;;3.70;99.90;;;;;;5002671;28;20141;-51
2023/03/05 00:42:38;;;;;;;3.25;0.40;;;3.70;99.90;;;;;;4999007;28;20096;-37
2023/03/05 00:45:08;;;;;;;1.50;0.52;;;3.70;99.90;;;;;;5000814;28;20377;-37
2023/03/05 00:47:34;;;;;;;4.00;0.40;;;3.70;99.90;;;;;;5012097;28;20141;-36
2023/03/05 00:50:00;;;;;;;2.92;0.50;;;3.60;99.90;;;;;;4999848;28;20084;-37
2023/03/05 00:52:25;;;;;;;2.15;0.30;;;3.60;99.90;;;;;;4998241;28;20136;-35
2023/03/05 00:54:51;;;;;;;6.82;0.95;;;3.70;99.90;;;;;;4998350;28;20670;-37
2023/03/05 00:57:17;;;;;;;1.30;0.40;;;3.70;99.90;;;;;;4994814;28;20050;-35
2023/03/05 00:59:42;;;;;;;6.50;0.55;;;3.70;99.90;;;;;;4998043;28;20049;-36
2023/03/05 01:02:08;;;;;;;3.47;0.70;;;3.70;99.90;;;;;;4996234;28;20050;-36
2023/03/05 01:04:34;;;;;;;5.57;0.40;;;3.70;99.90;;;;;;5001120;28;20038;-35
2023/03/05 01:07:00;;;;;;;2.50;0.43;;;3.60;99.90;;;;;;5001398;28;20553;-36
2023/03/05 01:09:26;;;;;;;3.03;0.40;;;3.70;99.90;;;;;;4994660;28;20054;-35
2023/03/05 01:11:52;;;;;;;2.50;0.43;;;3.70;99.90;;;;;;5000843;28;20069;-35
2023/03/05 01:14:19;;;;;;;1.88;0.50;;;3.70;99.90;;;;;;5001176;28;20068;-36
2023/03/05 01:16:45;;;;;;;8.95;1.40;;;3.70;99.90;;;;;;5001829;28;20045;-35
2023/03/05 01:19:12;;;;;;;3.95;0.40;;;3.70;99.90;;;;;;5002442;28;20065;-35
2023/03/05 01:21:38;;;;;;;4.40;0.43;;;3.70;99.90;;;;;;5001406;28;20547;-36
2023/03/05 01:24:05;;;;;;;1.13;0.20;;;3.70;99.90;;;;;;5001609;28;20492;-36
2023/03/05 01:26:31;;;;;;;2.92;0.50;;;3.70;99.90;;;;;;4999980;28;20077;-36
2023/03/05 01:28:56;;;;;;;4.45;0.32;;;3.70;99.90;;;;;;4995419;28;20500;-36
2023/03/05 01:31:22;;;;;;;2.65;0.43;;;3.70;99.90;;;;;;5013584;28;20066;-36
2023/03/05 01:33:52;;;;;;;2.15;0.88;;;3.70;99.90;;;;;;5002647;28;20511;-35
2023/03/05 01:36:17;;;;;;;6.45;0.60;;;3.70;99.90;;;;;;5001855;28;20547;-36
2023/03/05 01:38:44;;;;;;;2.17;0.30;;;3.70;99.90;;;;;;5000459;28;20192;-35
2023/03/05 01:41:11;;;;;;;3.50;0.40;;;3.70;99.90;;;;;;4998449;28;20080;-35
2023/03/05 01:43:37;;;;;;;1.98;0.60;;;3.70;99.90;;;;;;5003670;28;20057;-35
2023/03/05 01:46:15;;;;;;;1.50;0.28;;;3.70;99.90;;;;;;4995153;28;20420;-35
2023/03/05 01:48:48;;;;;;;4.10;0.30;;;3.70;99.90;;;;;;5003690;28;20561;-36
2023/03/05 01:51:15;;;;;;;4.40;0.30;;;3.70;99.90;;;;;;4998645;28;20176;-34
2023/03/05 01:53:41;;;;;;;3.63;0.47;;;3.70;99.90;;;;;;5001738;28;20053;-36
2023/03/05 01:56:08;;;;;;;3.08;0.20;;;3.80;99.90;;;;;;4998483;28;20054;-37
2023/03/05 01:58:34;;;;;;;2.42;0.28;;;3.80;99.90;;;;;;4998702;28;20096;-35
2023/03/05 02:01:01;;;;;;;3.42;0.50;;;3.80;99.90;;;;;;5002764;28;20050;-37
2023/03/05 02:03:26;;;;;;;5.53;0.38;;;3.80;99.90;;;;;;5003367;28;20104;-39
2023/03/05 02:05:52;;;;;;;2.05;0.30;;;3.70;99.90;;;;;;5005363;28;20077;-36
2023/03/05 02:08:20;;;;;;;1.23;0.30;;;3.80;99.90;;;;;;5003462;28;20609;-35
2023/03/05 02:10:51;;;;;;;1.48;0.20;;;3.80;99.90;;;;;;5005612;28;20062;-36
2023/03/05 02:13:32;;;;;;;3.55;0.30;;;3.70;99.90;;;;;;5003456;28;20046;-36
2023/03/05 02:16:00;;;;;;;3.28;0.30;;;3.70;99.90;;;;;;5004371;28;20049;-36
2023/03/05 02:18:25;;;;;;;1.80;0.20;;;3.70;99.90;;;;;;5005838;28;20054;-36
2023/03/05 02:20:59;;;;;;;2.25;0.30;;;3.70;99.90;;;;;;5005505;28;20740;-35
2023/03/05 02:23:27;;;;;;;2.28;0.75;;;3.70;99.90;;;;;;5003535;28;20081;-36
2023/03/05 02:25:53;;;;;;;2.60;0.20;;;3.60;99.90;;;;;;5002873;28;20045;-36
2023/03/05 02:28:37;;;;;;;1.33;0.40;;;3.60;99.90;;;;;;5001529;28;20097;-36
2023/03/05 02:31:14;;;;;;;1.70;0.35;;;3.60;99.90;;;;;;5002065;28;20072;-37
2023/03/05 02:33:40;;;;;;;3.72;0.55;;;3.60;99.90;;;;;;5003151;28;20041;-35
2023/03/05 02:36:06;;;;;;;2.05;0.17;;;3.60;99.90;;;;;;5001996;28;20077;-36
2023/03/05 02:38:32;;;;;;;6.28;0.30;;;3.60;99.90;;;;;;5004262;28;20085;-35
2023/03/05 02:40:58;;;;;;;1.20;0.20;;;3.60;99.90;;;;;;5007632;28;20081;-35
2023/03/05 02:43:24;;;;;;;1.75;0.30;;;3.60;99.90;;;;;;4999756;28;20077;-35
2023/03/05 02:45:50;;;;;;;3.72;0.30;;;3.50;99.90;;;;;;5001442;28;20385;-35
2023/03/05 02:48:15;;;;;;;2.13;0.50;;;3.50;99.90;;;;;;5005782;28;20061;-35
2023/03/05 02:50:42;;;;;;;1.13;0.30;;;3.50;99.90;;;;;;5006404;28;20042;-36
2023/03/05 02:53:08;;;;;;;3.10;0.30;;;3.40;99.90;;;;;;5003424;28;22055;-36
2023/03/05 02:55:34;;;;;;;0.30;0.10;;;3.40;99.90;;;;;;5000913;28;20460;-36
2023/03/05 02:57:59;;;;;;;3.40;0.20;;;3.40;99.90;;;;;;5003072;28;20041;-36
2023/03/05 03:00:25;;;;;;;2.13;0.10;;;3.50;99.90;;;;;;4996591;28;20687;-36
2023/03/05 03:02:51;;;;;;;1.55;0.28;;;3.40;99.90;;;;;;4999674;28;20050;-37
2023/03/05 03:05:17;;;;;;;2.13;0.20;;;3.50;99.90;;;;;;5004430;28;20491;-38
2023/03/05 03:07:42;;;;;;;2.90;1.38;;;3.50;99.90;;;;;;5003900;28;20129;-35
2023/03/05 03:10:09;;;;;;;3.03;0.57;;;3.50;99.90;;;;;;5003098;28;20054;-35
2023/03/05 03:12:40;;;;;;;1.65;0.30;;;3.50;99.90;;;;;;5007339;28;20050;-35
2023/03/05 03:15:08;;;;;;;5.82;0.43;;;3.50;99.90;;;;;;5003473;28;20053;-36
2023/03/05 03:17:36;;;;;;;2.55;0.20;;;3.50;99.90;;;;;;4994161;28;20046;-35
2023/03/05 03:20:04;;;;;;;2.15;0.20;;;3.50;99.90;;;;;;5002748;28;20042;-36
2023/03/05 03:22:30;;;;;;;2.72;0.20;;;3.40;99.90;;;;;;5003210;28;20066;-34
2023/03/05 03:24:56;;;;;;;0.77;0.20;;;3.40;99.90;;;;;;5003005;28;20084;-35
2023/03/05 03:27:22;;;;;;;2.28;0.20;;;3.40;99.90;;;;;;4997574;28;20058;-36
2023/03/05 03:29:48;;;;;;;1.95;0.13;;;3.40;99.90;;;;;;5005938;28;20131;-36
2023/03/05 03:32:14;;;;;;;1.25;0.10;;;3.40;99.90;;;;;;5002382;28;20045;-36
2023/03/05 03:34:39;;;;;;;2.03;0.25;;;3.40;99.90;;;;;;4998090;28;20121;-35
2023/03/05 03:37:05;;;;;;;4.13;0.30;;;3.40;99.90;;;;;;4999862;28;20511;-36
2023/03/05 03:39:31;;;;;;;2.45;0.70;;;3.40;99.90;;;;;;4994789;28;20518;-36
2023/03/05 03:41:57;;;;;;;0.85;0.20;;;3.40;99.90;;;;;;5000706;28;20068;-37
2023/03/05 03:44:22;;;;;;;1.30;0.20;;;3.40;99.90;;;;;;5001133;28;20058;-36
2023/03/05 03:46:50;;;;;;;0.93;0.20;;;3.40;99.90;;;;;;5001711;28;20077;-35
2023/03/05 03:49:24;;;;;;;1.08;0.20;;;3.40;99.90;;;;;;5004193;28;20062;-36
2023/03/05 03:51:53;;;;;;;2.35;0.32;;;3.40;99.90;;;;;;5001035;28;20108;-36
2023/03/05 03:54:19;;;;;;;0.55;0.13;;;3.50;99.90;;;;;;5002046;28;20469;-37
2023/03/05 03:56:45;;;;;;;2.47;0.20;;;3.40;99.90;;;;;;5002523;28;20115;-35
2023/03/05 03:59:11;;;;;;;2.70;0.30;;;3.40;99.90;;;;;;5004961;28;20504;-35
2023/03/05 04:01:37;;;;;;;2.53;0.82;;;3.40;99.90;;;;;;5004317;28;20056;-36
2023/03/05 04:04:04;;;;;;;2.70;0.43;;;3.40;99.90;;;;;;4998271;28;20415;-35
2023/03/05 04:06:29;;;;;;;1.85;0.40;;;3.40;99.90;;;;;;5002092;28;20052;-35
2023/03/05 04:08:56;;;;;;;2.35;0.35;;;3.40;99.90;;;;;;5006194;28;20057;-35
2023/03/05 04:11:21;;;;;;;0.82;0.25;;;3.30;99.90;;;;;;5000542;28;20492;-36
2023/03/05 04:13:47;;;;;;;3.70;0.30;;;3.30;99.90;;;;;;5004203;28;20081;-35
2023/03/05 04:16:14;;;;;;;0.63;0.25;;;3.30;99.90;;;;;;5001712;28;20054;-38
2023/03/05 04:18:40;;;;;;;4.22;0.68;;;3.30;99.90;;;;;;5001229;28;20487;-35
2023/03/05 04:21:06;;;;;;;2.45;0.28;;;3.30;99.90;;;;;;5001103;28;20057;-35
2023/03/05 04:23:32;;;;;;;1.98;0.30;;;3.30;99.90;;;;;;5000379;28;20620;-35
2023/03/05 04:25:58;;;;;;;1.45;0.30;;;3.30;99.90;;;;;;4998244;28;20111;-35
2023/03/05 04:28:24;;;;;;;3.50;0.25;;;3.20;99.90;;;;;;4997548;28;20064;-36
2023/03/05 04:30:50;;;;;;;2.70;0.50;;;3.20;99.90;;;;;;4996872;28;20675;-38
2023/03/05 04:33:16;;;;;;;1.08;0.38;;;3.20;99.90;;;;;;5001825;28;20425;-35
2023/03/05 04:35:42;;;;;;;3.17;0.32;;;3.20;99.90;;;;;;4994982;28;20511;-36
2023/03/05 04:38:08;;;;;;;3.72;0.32;;;3.20;99.90;;;;;;4993065;28;20143;-35
2023/03/05 04:40:34;;;;;;;1.15;0.35;;;3.20;99.90;;;;;;5001337;28;20079;-35
2023/03/05 04:43:00;;;;;;;4.60;0.75;;;3.20;99.90;;;;;;4990123;28;20503;-36
2023/03/05 04:45:25;;;;;;;2.80;0.30;;;3.20;99.90;;;;;;4995927;28;20069;-36
2023/03/05 04:47:51;;;;;;;2.60;0.30;;;3.20;99.90;;;;;;4997787;28;20495;-46
2023/03/05 04:50:17;;;;;;;3.15;0.30;;;3.20;99.90;;;;;;5003716;28;20407;-35
2023/03/05 04:52:44;;;;;;;3.75;0.30;;;3.20;99.90;;;;;;5002477;28;20042;-35
2023/03/05 04:55:11;;;;;;;2.55;0.30;;;3.20;99.90;;;;;;4996808;28;20407;-34
2023/03/05 04:57:37;;;;;;;2.58;0.25;;;3.20;99.90;;;;;;4996304;28;20151;-35
2023/03/05 05:00:05;;;;;;;3.53;0.35;;;3.20;99.90;;;;;;5000013;28;20053;-35
2023/03/05 05:02:32;;;;;;;0.85;0.30;;;3.20;99.90;;;;;;5000049;28;20504;-35
2023/03/05 05:04:58;;;;;;;6.78;0.40;;;3.20;99.90;;;;;;5001060;28;20344;-35
2023/03/05 05:07:24;;;;;;;2.20;0.40;;;3.20;99.90;;;;;;5000775;28;21577;-36
2023/03/05 05:09:49;;;;;;;3.70;0.50;;;3.10;99.90;;;;;;5003239;28;20062;-35
2023/03/05 05:12:15;;;;;;;2.17;0.30;;;3.10;99.90;;;;;;5004973;28;20049;-35
2023/03/05 05:14:41;;;;;;;4.10;0.60;;;3.10;99.90;;;;;;5001554;28;20054;-35
2023/03/05 05:17:06;;;;;;;4.80;0.30;;;3.10;99.90;;;;;;4994674;28;20046;-35
2023/03/05 05:19:33;;;;;;;1.15;0.28;;;3.20;99.90;;;;;;4998425;28;20046;-35
2023/03/05 05:21:59;;;;;;;1.95;0.30;;;3.20;99.90;;;;;;5001657;28;20072;-36
2023/03/05 05:24:24;;;;;;;0.80;0.25;;;3.20;99.90;;;;;;4999926;28;20053;-35
2023/03/05 05:26:53;;;;;;;4.90;0.30;;;3.20;99.90;;;;;;4998578;28;20062;-35
2023/03/05 05:29:18;;;;;;;3.05;0.38;;;3.20;99.90;;;;;;5000168;28;20153;-35
2023/03/05 05:31:44;;;;;;;3.83;0.50;;;3.20;99.90;;;;;;5001668;28;20132;-35
2023/03/05 05:34:10;;;;;;;3.92;0.40;;;3.20;99.90;;;;;;4994097;28;20100;-36
2023/03/05 05:36:36;;;;;;;2.67;0.32;;;3.20;99.90;;;;;;4998618;28;20045;-36
2023/03/05 05:39:02;;;;;;;2.05;0.30;;;3.20;99.90;;;;;;5006190;28;20198;-35
2023/03/05 05:41:27;;;;;;;1.70;0.28;;;3.20;99.90;;;;;;5002125;28;20050;-35
2023/03/05 05:43:53;;;;;;;3.20;0.28;;;3.30;99.90;;;;;;5006722;28;20057;-35
2023/03/05 05:46:19;;;;;;;2.72;0.20;;;3.30;99.90;;;;;;5005251;28;20058;-35
2023/03/05 05:48:46;;;;;;;2.40;0.20;;;3.30;99.90;;;;;;5004911;28;20068;-35
2023/03/05 05:51:18;;;;;;;2.10;0.30;;;3.30;99.90;;;;;;5005350;28;20060;-35
2023/03/05 05:53:44;;;;;;;2.88;0.45;;;3.30;99.90;;;;;;5007064;28;20480;-34
2023/03/05 05:56:11;;;;;;;3.85;0.20;;;3.30;99.90;;;;;;5004138;28;20053;-35
2023/03/05 05:58:38;;;;;;;1.17;0.30;;;3.30;99.90;;;;;;5014887;28;20042;-35
2023/03/05 06:01:30;;;;;;;4.88;0.80;;;3.30;99.90;;;;;;5003371;28;20631;-35
2023/03/05 06:03:56;;;;;;;1.50;0.20;;;3.30;99.90;;;;;;5000778;28;20056;-35
2023/03/05 06:06:23;;;;;;;3.50;0.20;;;3.30;99.90;;;;;;4998814;28;20046;-36
2023/03/05 06:08:50;;;;;;;3.75;0.30;;;3.30;99.90;;;;;;5002607;28;20133;-36
2023/03/05 06:11:16;;;;;;;2.20;0.20;;;3.30;99.90;;;;;;4999099;28;20795;-43
2023/03/05 06:13:42;;;;;;;1.33;0.28;;;3.30;99.90;;;;;;5000672;28;20050;-35
2023/03/05 06:16:12;;;;;;;0.40;0.10;;;3.30;99.90;;;;;;5000634;28;20049;-35
2023/03/05 06:18:37;;;;;;;3.10;0.30;;;3.30;99.90;;;;;;5003922;28;20049;-35
2023/03/05 06:21:06;;;;;;;2.10;0.28;;;3.30;99.90;;;;;;5001552;28;20076;-37
2023/03/05 06:23:33;;;;;;;5.40;0.50;;;3.30;99.90;;;;;;5004361;28;20054;-37
2023/03/05 06:26:01;;;;;;;3.03;0.30;;;3.30;99.90;;;;;;5000291;28;20053;-36
2023/03/05 06:28:28;;;;;;;2.17;0.35;;;3.30;99.90;;;;;;5000095;28;20511;-35
2023/03/05 06:31:02;;;;;;;1.67;0.20;;;3.30;99.90;;;;;;5000727;28;20053;-38
2023/03/05 06:33:28;;;;;;;2.30;0.22;;;3.30;99.90;;;;;;5003547;28;20064;-35
2023/03/05 06:35:54;;;;;;;3.17;0.20;;;3.30;99.90;;;;;;4997360;28;20058;-35
2023/03/05 06:38:20;;;;;;;1.30;0.20;;;3.30;99.90;;;;;;5002406;28;20278;-43
2023/03/05 06:40:45;;;;;;;3.65;0.28;;;3.30;99.90;;;;;;5000586;28;20057;-44
2023/03/05 06:43:11;;;;;;;2.85;0.20;;;3.30;99.90;;;;;;5001928;28;20121;-41
2023/03/05 06:45:37;;;;;;;1.92;0.20;;;3.30;99.90;;;;;;5001143;28;20049;-43
2023/03/05 06:48:03;;;;;;;1.75;0.20;;;3.30;99.90;;;;;;4998623;28;20527;-44
2023/03/05 06:50:28;;;;;;;2.45;0.35;;;3.30;99.90;;;;;;5014679;28;20158;-42
2023/03/05 06:52:54;;;;;;;5.32;0.45;;;3.30;99.90;;;;;;5002680;28;20049;-48
2023/03/05 06:55:20;;;;;;;1.05;0.30;;;3.30;99.90;;;;;;5001064;28;20061;-47
2023/03/05 06:57:46;;;;;;;1.88;0.30;;;3.30;99.90;;;;;;5001564;28;20431;-49
2023/03/05 07:00:12;;;;;;;6.43;0.30;;;3.40;99.90;;;;;;4997657;28;20085;-48
2023/03/05 07:02:38;;;;;;;2.95;0.28;;;3.40;99.90;;;;;;4998937;28;20589;-43
2023/03/05 07:05:05;;;;;;;3.33;0.50;;;3.40;99.90;;;;;;4998680;28;20054;-47
2023/03/05 07:07:31;;;;;;;2.55;0.32;;;3.40;99.90;;;;;;5002279;28;20046;-44
2023/03/05 07:09:57;;;;;;;1.77;0.30;;;3.40;99.90;;;;;;5001769;28;20061;-46
2023/03/05 07:12:23;;;;;;;2.83;0.30;;;3.50;99.90;;;;;;5017690;28;20081;-48
2023/03/05 07:14:49;;;;;;;2.70;0.43;;;3.50;99.90;;;;;;5001118;28;20209;-37
2023/03/05 07:17:15;;;;;;;2.83;0.30;;;3.50;99.90;;;;;;4999446;28;20458;-37
2023/03/05 07:19:41;;;;;;;2.60;0.20;;;3.50;99.90;;;;;;5001737;28;20077;-36
2023/03/05 07:22:07;;;;;;;1.02;0.50;;;3.50;99.90;;;;;;5017372;28;20184;-37
2023/03/05 07:24:33;;;;;;;4.18;0.20;;;3.50;99.90;;;;;;5001649;28;20056;-35
2023/03/05 07:26:59;;;;;;;0.73;0.20;;;3.60;99.90;;;;;;5002654;28;20064;-36
2023/03/05 07:29:26;;;;;;;2.08;0.43;;;3.60;99.90;;;;;;5000905;28;20135;-37
2023/03/05 07:31:52;;;;;;;6.93;0.63;;;3.60;99.90;;;;;;5000993;28;20739;-36
2023/03/05 07:34:18;;;;;;;2.53;0.40;;;3.60;99.90;;;;;;5005171;28;20526;-37
2023/03/05 07:36:45;;;;;;;0.85;0.40;;;3.60;99.90;;;;;;4999318;28;20107;-36
2023/03/05 07:39:12;;;;;;;5.55;0.57;;;3.70;99.90;;;;;;5005582;28;20372;-37
2023/03/05 07:41:37;;;;;;;1.10;0.30;;;3.70;99.90;;;;;;5000208;28;20050;-36
2023/03/05 07:44:04;;;;;;;3.00;0.43;;;3.70;99.90;;;;;;4998988;28;20562;-36
2023/03/05 07:46:32;;;;;;;1.33;0.22;;;3.70;99.90;;;;;;5001385;28;20060;-37
2023/03/05 07:48:59;;;;;;;4.72;0.40;;;3.70;99.90;;;;;;5004768;28;20528;-36
2023/03/05 07:51:25;;;;;;;1.85;0.20;;;3.80;99.90;;;;;;4997882;28;20550;-36
2023/03/05 07:53:53;;;;;;;4.05;0.30;;;3.80;99.90;;;;;;4997219;28;20041;-36
2023/03/05 07:56:34;;;;;;;0.95;0.20;;;3.70;99.90;;;;;;4996846;28;20059;-42
2023/03/05 07:59:01;;;;;;;2.10;0.20;;;3.80;99.90;;;;;;4998066;28;20065;-44
2023/03/05 08:01:28;;;;;;;2.65;0.20;;;3.80;99.90;;;;;;4994088;28;20045;-42
2023/03/05 08:03:54;;;;;;;0.98;0.32;;;3.80;99.90;;;;;;4997964;28;20056;-41
2023/03/05 08:06:20;;;;;;;2.03;0.20;;;3.90;99.90;;;;;;5001632;28;20058;-41
2023/03/05 08:08:45;;;;;;;2.10;0.20;;;3.80;99.90;;;;;;4998432;28;20519;-44
2023/03/05 08:11:14;;;;;;;4.07;0.70;;;3.90;99.90;;;;;;4995251;28;20042;-41
2023/03/05 08:13:41;;;;;;;2.05;0.15;;;3.90;99.90;;;;;;5002714;28;20092;-43
2023/03/05 08:16:10;;;;;;;3.20;0.10;;;4.00;99.90;;;;;;5000926;28;20053;-41
2023/03/05 08:18:36;;;;;;;1.48;0.43;;;4.00;99.90;;;;;;5001731;28;20064;-41
2023/03/05 08:21:02;;;;;;;2.20;0.20;;;4.00;99.90;;;;;;5001472;28;20057;-42
2023/03/05 08:23:28;;;;;;;2.05;0.20;;;4.10;99.90;;;;;;5000734;28;21569;-46
2023/03/05 08:25:54;;;;;;;1.15;0.20;;;4.20;99.90;;;;;;5001939;28;20045;-46
2023/03/05 08:28:20;;;;;;;3.40;0.30;;;4.20;99.90;;;;;;5001127;28;20057;-41
2023/03/05 08:30:47;;;;;;;1.75;0.30;;;4.30;99.90;;;;;;4999838;28;20506;-41
2023/03/05 08:33:14;;;;;;;2.97;0.40;;;4.40;99.90;;;;;;5000154;28;20073;-44
2023/03/05 08:35:40;;;;;;;2.22;0.63;;;4.50;99.90;;;;;;5001403;28;20054;-46
2023/03/05 08:38:05;;;;;;;1.50;0.20;;;4.60;99.90;;;;;;4999458;28;20049;-41
2023/03/05 08:40:31;;;;;;;1.80;0.95;;;4.70;99.90;;;;;;4996241;28;20050;-43
2023/03/05 08:42:58;;;;;;;2.35;0.60;;;4.70;99.90;;;;;;5001038;28;20054;-42
2023/03/05 08:45:26;;;;;;;1.48;0.40;;;4.80;99.90;;;;;;4996659;28;20143;-38
2023/03/05 08:47:53;;;;;;;5.57;0.35;;;4.90;99.90;;;;;;4997939;28;20495;-45
2023/03/05 08:50:21;;;;;;;4.22;0.30;;;5.00;99.90;;;;;;4998711;28;20211;-42
2023/03/05 08:52:46;;;;;;;5.00;0.30;;;5.10;99.90;;;;;;5000989;28;20053;-43
2023/03/05 08:55:12;;;;;;;2.15;0.40;;;5.10;99.90;;;;;;5000783;28;20058;-46
2023/03/05 08:57:38;;;;;;;0.95;0.38;;;5.10;99.90;;;;;;5020031;28;20823;-47
2023/03/05 09:00:06;;;;;;;4.18;0.22;;;5.20;99.90;;;;;;5002576;28;20045;-48
2023/03/05 09:02:31;;;;;;;2.40;0.40;;;5.30;99.90;;;;;;5002371;28;20129;-37
2023/03/05 09:04:57;;;;;;;2.72;0.38;;;5.50;99.90;;;;;;5001115;28;20046;-36
2023/03/05 09:07:23;;;;;;;5.13;0.50;;;5.60;99.90;;;;;;4999575;28;20077;-51
2023/03/05 09:09:49;;;;;;;2.63;0.55;;;5.70;99.90;;;;;;4996757;28;20058;-45
2023/03/05 09:12:14;;;;;;;3.50;0.73;;;5.70;99.90;;;;;;5001065;28;20072;-48
2023/03/05 09:14:41;;;;;;;4.32;0.40;;;5.80;99.90;;;;;;5003021;28;20496;-48
2023/03/05 09:17:07;;;;;;;5.13;0.40;;;5.90;99.90;;;;;;5003655;28;20058;-47
2023/03/05 09:19:33;;;;;;;2.60;0.75;;;5.90;99.90;;;;;;5006444;28;20184;-48
2023/03/05 09:21:59;;;;;;;2.30;0.22;;;5.90;99.90;;;;;;5005269;28;20400;-43
2023/03/05 09:24:25;;;;;;;2.40;0.32;;;5.90;99.90;;;;;;5005735;28;20057;-48
2023/03/05 09:26:50;;;;;;;2.45;0.30;;;6.00;99.90;;;;;;5001737;28;20054;-48
2023/03/05 09:29:16;;;;;;;2.90;0.30;;;6.00;99.90;;;;;;5020409;28;20068;-47
2023/03/05 09:31:42;;;;;;;3.13;0.28;;;6.10;99.90;;;;;;5003747;28;20431;-47
2023/03/05 09:34:10;;;;;;;3.28;0.43;;;6.10;99.90;;;;;;4998386;28;20123;-36
2023/03/05 09:36:35;;;;;;;2.95;0.20;;;6.20;99.90;;;;;;5006789;28;20041;-38
2023/03/05 09:39:01;;;;;;;2.58;0.32;;;6.20;99.90;;;;;;4997797;28;20054;-36
2023/03/05 09:41:36;;;;;;;2.33;0.38;;;6.30;99.90;;;;;;4999451;28;20057;-37
2023/03/05 09:44:14;;;;;;;5.03;0.65;;;6.40;99.90;;;;;;5006378;28;20137;-36
2023/03/05 09:46:54;;;;;;;1.70;0.17;;;6.50;99.90;;;;;;5000837;28;20139;-38
2023/03/05 09:49:35;;;;;;;2.90;0.45;;;6.60;99.90;;;;;;5000693;28;20046;-36
2023/03/05 09:52:22;;;;;;;1.80;0.32;;;6.60;99.90;;;;;;5006045;28;20565;-36
2023/03/05 09:54:56;;;;;;;5.43;0.35;;;6.60;99.90;;;;;;5005006;28;20057;-37
2023/03/05 09:57:27;;;;;;;2.47;0.30;;;6.60;99.90;;;;;;4998361;28;20050;-37
2023/03/05 09:59:58;;;;;;;4.45;0.32;;;6.50;99.90;;;;;;5001642;28;20062;-37
2023/03/05 10:02:31;;;;;;;2.75;0.40;;;6.50;99.90;;;;;;5005301;28;20054;-37
2023/03/05 10:05:08;;;;;;;2.45;0.20;;;6.50;99.90;;;;;;5005647;28;20108;-36
2023/03/05 10:07:43;;;;;;;1.17;0.45;;;6.50;99.90;;;;;;5000768;28;20061;-37
2023/03/05 10:10:13;;;;;;;4.18;0.60;;;6.50;99.90;;;;;;5004545;28;20087;-37
2023/03/05 10:12:52;;;;;;;3.15;0.30;;;6.60;99.90;;;;;;4999805;28;20120;-37
2023/03/05 10:15:50;;;;;;;4.20;0.22;;;6.70;99.90;;;;;;5003703;28;20154;-37
2023/03/05 10:19:05;;;;;;;5.55;0.40;;;6.80;99.90;;;;;;5001131;28;20045;-38
2023/03/05 10:22:00;;;;;;;4.18;0.50;;;6.90;99.90;;;;;;4956514;28;20066;-36
2023/03/05 10:24:54;;;;;;;4.38;0.35;;;6.80;99.90;;;;;;4941327;28;20464;-36
2023/03/05 10:27:45;;;;;;;1.33;0.20;;;6.80;99.90;;;;;;4991717;28;20057;-39
2023/03/05 10:30:30;;;;;;;4.35;0.20;;;6.90;99.90;;;;;;5002100;28;20128;-37
2023/03/05 10:32:59;;;;;;;3.90;0.30;;;6.90;99.90;;;;;;5000014;28;20302;-36
2023/03/05 10:35:38;;;;;;;1.55;0.25;;;7.00;99.90;;;;;;4994015;28;20491;-37
2023/03/05 10:38:21;;;;;;;1.70;0.30;;;7.20;99.80;;;;;;5004246;28;20141;-37
2023/03/05 10:40:59;;;;;;;2.30;0.28;;;7.30;99.40;;;;;;5001681;28;20496;-37
2023/03/05 10:43:57;;;;;;;2.38;0.20;;;7.40;98.70;;;;;;5003223;28;20071;-36
2023/03/05 10:46:33;;;;;;;1.98;0.20;;;7.40;98.70;;;;;;4999184;28;20084;-36
2023/03/05 10:49:06;;;;;;;3.45;0.13;;;7.40;99.10;;;;;;4993779;28;20066;-37
2023/03/05 10:52:10;;;;;;;3.28;0.40;;;7.30;97.70;;;;;;4992541;28;20061;-36
2023/03/05 10:54:40;;;;;;;2.50;0.50;;;7.40;97.90;;;;;;4989493;28;20369;-36
2023/03/05 10:57:19;;;;;;;2.28;0.20;;;7.50;98.80;;;;;;4995474;28;20046;-35
2023/03/05 10:59:56;;;;;;;4.97;0.32;;;7.60;98.50;;;;;;4996350;28;20061;-35
2023/03/05 11:02:22;;;;;;;2.85;0.20;;;7.50;96.60;;;;;;5000251;28;20524;-36
2023/03/05 11:04:50;;;;;;;3.15;0.20;;;7.50;96.50;;;;;;5003163;28;20500;-36
2023/03/05 11:07:15;;;;;;;1.52;0.30;;;7.50;96.50;;;;;;4996351;28;20109;-37
2023/03/05 11:10:12;;;;;;;4.93;0.38;;;7.60;96.10;;;;;;5000013;28;20070;-36
2023/03/05 11:12:38;;;;;;;2.63;0.50;;;7.70;95.80;;;;;;4994903;28;20053;-35
2023/03/05 11:15:27;;;;;;;1.23;0.30;;;7.80;96.30;;;;;;4994871;28;20060;-35
2023/03/05 11:18:21;;;;;;;1.67;0.10;;;7.90;95.90;;;;;;4997074;28;20483;-36
2023/03/05 11:20:47;;;;;;;1.38;0.20;;;7.90;93.20;;;;;;4998515;28;20046;-35
2023/03/05 11:23:22;;;;;;;2.35;0.30;;;7.80;94.10;;;;;;5001178;28;20523;-35
2023/03/05 11:26:01;;;;;;;1.75;0.25;;;7.90;94.60;;;;;;4992854;28;20046;-35
2023/03/05 11:28:54;;;;;;;3.28;0.47;;;7.90;93.80;;;;;;5001694;28;20058;-35
2023/03/05 11:31:24;;;;;;;4.68;0.20;;;8.00;94.20;;;;;;4997762;28;20059;-35
2023/03/05 11:33:53;;;;;;;2.22;0.30;;;8.00;93.60;;;;;;4997195;28;20054;-37
2023/03/05 11:36:23;;;;;;;2.17;0.20;;;8.10;94.30;;;;;;4995820;28;20053;-36
2023/03/05 11:39:08;;;;;;;1.05;0.13;;;8.20;94.20;;;;;;5004186;28;20566;-35
2023/03/05 11:41:48;;;;;;;2.22;0.28;;;8.30;93.80;;;;;;5001764;28;20603;-36
2023/03/05 11:44:20;;;;;;;1.00;0.30;;;8.40;91.30;;;;;;5003361;28;20065;-38
2023/03/05 11:47:12;;;;;;;2.33;0.60;;;8.30;92.80;;;;;;5005588;28;20100;-35
2023/03/05 11:49:43;;;;;;;4.70;0.20;;;8.30;92.10;;;;;;5003559;28;20058;-37
2023/03/05 11:52:23;;;;;;;3.28;0.30;;;8.30;92.30;;;;;;4997181;28;20089;-37
2023/03/05 11:55:06;;;;;;;0.50;0.17;;;8.40;91.70;;;;;;5006109;28;20077;-34
2023/03/05 11:57:41;;;;;;;2.90;0.20;;;8.50;91.90;;;;;;5003209;28;20054;-36
2023/03/05 12:00:11;;;;;;;4.35;0.45;;;8.70;92.30;;;;;;5004890;28;20041;-36
2023/03/05 12:02:37;;;;;;;3.55;0.30;;;8.80;91.00;;;;;;5020306;28;20048;-36
2023/03/05 12:05:06;;;;;;;1.98;0.30;;;8.70;90.50;;;;;;5002611;28;20057;-36
2023/03/05 12:07:43;;;;;;;5.03;0.40;;;8.60;90.70;;;;;;5008818;28;20049;-35
2023/03/05 12:10:23;;;;;;;2.13;0.38;;;8.50;92.00;;;;;;5004360;28;20061;-39
2023/03/05 12:12:57;;;;;;;2.40;0.80;;;8.30;92.80;;;;;;5005912;28;20042;-36
2023/03/05 12:15:48;;;;;;;1.38;0.22;;;8.00;93.40;;;;;;5014537;28;20069;-36
2023/03/05 12:18:23;;;;;;;1.75;0.82;;;7.80;94.20;;;;;;5008159;28;20053;-35
2023/03/05 12:21:25;;;;;;;3.88;0.43;;;7.50;95.00;;;;;;5003737;28;20061;-35
2023/03/05 12:23:57;;;;;;;1.92;0.30;;;7.20;95.60;;;;;;4992112;28;20173;-36
2023/03/05 12:27:03;;;;;;;2.60;0.30;;;7.00;96.20;;;;;;5022062;28;20526;-35
2023/03/05 12:29:39;;;;;;;1.30;0.22;;;6.80;96.60;;;;;;5002753;28;20143;-35
2023/03/05 12:32:27;;;;;;;1.83;0.30;;;6.60;96.90;;;;;;5016699;28;20064;-37
2023/03/05 12:35:05;;;;;;;3.08;0.20;;;6.60;97.20;;;;;;4995812;28;20208;-36
2023/03/05 12:37:30;;;;;;;2.10;0.30;;;6.70;97.60;;;;;;5001446;28;20061;-45
2023/03/05 12:39:57;;;;;;;2.10;0.30;;;6.80;97.40;;;;;;5002637;28;20058;-35
2023/03/05 12:42:29;;;;;;;1.85;0.20;;;7.00;96.30;;;;;;5001514;28;20092;-35
2023/03/05 12:45:17;;;;;;;2.80;0.30;;;7.30;95.80;;;;;;4998636;28;20068;-36
2023/03/05 12:47:47;;;;;;;2.30;0.22;;;7.50;94.20;;;;;;5005138;28;20334;-36
2023/03/05 12:50:28;;;;;;;1.55;0.75;;;7.60;93.90;;;;;;5005706;28;20077;-36
2023/03/05 12:52:57;;;;;;;3.08;0.15;;;7.60;94.60;;;;;;5004120;28;20091;-35
2023/03/05 12:55:44;;;;;;;4.75;1.08;;;8.10;94.30;;;;;;5022213;28;20077;-35
2023/03/05 12:58:18;;;;;;;4.13;0.90;;;8.60;92.10;;;;;;5000422;28;20431;-35
2023/03/05 13:01:06;;;;;;;0.60;0.10;;;9.00;91.50;;;;;;5002941;28;20518;-35
2023/03/05 13:03:39;;;;;;;2.63;0.20;;;9.30;91.20;;;;;;5004422;28;20107;-37
2023/03/05 13:06:06;;;;;;;5.22;0.60;;;9.90;90.30;;;;;;5001590;28;20604;-43
2023/03/05 13:08:34;;;;;;;3.65;0.40;;;10.10;86.70;;;;;;5002621;28;20058;-35
2023/03/05 13:11:15;;;;;;;2.75;0.22;;;10.50;85.90;;;;;;5001439;28;20065;-36